createdAt,value
2023-01-10T00:02:13.119Z,5.70
2023-01-10T00:04:58.099Z,5.75
2023-01-10T00:07:43.394Z,5.73
2023-01-10T00:10:28.251Z,5.78
2023-01-10T00:13:23.842Z,5.81
2023-01-10T00:16:09.086Z,5.85
2023-01-10T00:18:54.077Z,5.83
2023-01-10T00:21:39.562Z,5.84
2023-01-10T00:24:24.996Z,5.85
2023-01-10T00:27:12.564Z,5.89
2023-01-10T00:30:01.063Z,5.86
2023-01-10T00:32:46.128Z,5.89
2023-01-10T00:35:30.843Z,5.90
2023-01-10T00:38:16.719Z,5.92
2023-01-10T00:41:02.547Z,5.90
2023-01-10T00:43:59.595Z,5.98
2023-01-10T00:46:44.280Z,5.92
2023-01-10T00:49:29.301Z,5.97
2023-01-10T00:52:14.069Z,5.95
2023-01-10T00:54:58.856Z,5.99
2023-01-10T00:57:44.083Z,5.95
2023-01-10T01:00:29.199Z,5.99
2023-01-10T01:03:13.925Z,6.03
2023-01-10T01:06:05.079Z,6.00
2023-01-10T01:08:49.969Z,5.99
2023-01-10T01:11:35.141Z,6.03
2023-01-10T01:14:20.089Z,6.06
2023-01-10T01:17:04.974Z,6.03
2023-01-10T01:19:49.724Z,6.02
2023-01-10T01:22:35.013Z,6.03
2023-01-10T01:25:20.265Z,6.00
2023-01-10T01:28:05.524Z,5.95
2023-01-10T01:30:50.703Z,5.93
2023-01-10T01:33:36.212Z,5.90
2023-01-10T01:36:21.288Z,5.83
2023-01-10T01:39:06.116Z,5.73
2023-01-10T01:41:57.101Z,5.76
2023-01-10T01:44:42.462Z,5.69
2023-01-10T01:47:27.847Z,5.70
2023-01-10T01:50:28.862Z,5.71
2023-01-10T01:53:27.014Z,5.69
2023-01-10T01:56:47.728Z,5.72
2023-01-10T01:59:41.154Z,5.71
2023-01-10T02:02:30.595Z,5.67
2023-01-10T02:05:17.384Z,5.61
2023-01-10T02:08:02.690Z,5.64
2023-01-10T02:11:03.573Z,5.62
2023-01-10T02:13:48.915Z,5.58
2023-01-10T02:16:34.103Z,5.60
2023-01-10T02:19:43.108Z,5.61
2023-01-10T02:23:05.978Z,5.65
2023-01-10T02:26:16.577Z,5.65
2023-01-10T02:30:00.785Z,5.59
2023-01-10T02:33:04.009Z,5.63
2023-01-10T02:36:06.941Z,5.63
2023-01-10T02:39:04.478Z,5.62
2023-01-10T02:41:59.410Z,5.55
2023-01-10T02:44:54.121Z,5.56
2023-01-10T02:47:41.222Z,5.55
2023-01-10T02:50:35.419Z,5.51
2023-01-10T02:53:29.569Z,5.50
2023-01-10T02:56:29.681Z,5.52
2023-01-10T02:59:33.257Z,5.53
2023-01-10T03:02:42.401Z,5.57
2023-01-10T03:05:49.625Z,5.58
2023-01-10T03:08:39.820Z,5.56
2023-01-10T03:11:39.987Z,5.55
2023-01-10T03:14:28.454Z,5.64
2023-01-10T03:17:16.757Z,5.69
2023-01-10T03:20:05.645Z,5.67
2023-01-10T03:22:52.642Z,5.65
2023-01-10T03:25:38.573Z,5.63
2023-01-10T03:28:30.418Z,5.59
2023-01-10T03:31:26.225Z,5.57
2023-01-10T03:34:12.354Z,5.58
2023-01-10T03:37:45.074Z,5.51
2023-01-10T03:40:48.162Z,5.51
2023-01-10T03:44:06.892Z,5.55
2023-01-10T03:46:59.112Z,5.46
2023-01-10T03:49:48.159Z,5.45
2023-01-10T03:52:35.646Z,5.40
2023-01-10T03:55:24.520Z,5.33
2023-01-10T03:58:09.158Z,5.26
2023-01-10T04:00:54.155Z,5.18
2023-01-10T04:03:39.246Z,5.26
2023-01-10T04:06:24.036Z,5.34
2023-01-10T04:09:09.248Z,5.27
2023-01-10T04:11:54.362Z,5.28
2023-01-10T04:14:39.637Z,5.26
2023-01-10T04:17:24.467Z,5.22
2023-01-10T04:20:10.161Z,5.16
2023-01-10T04:22:55.678Z,5.28
2023-01-10T04:25:40.594Z,5.27
2023-01-10T04:28:25.520Z,5.25
2023-01-10T04:31:10.444Z,5.26
2023-01-10T04:33:55.361Z,5.27
2023-01-10T04:36:40.365Z,5.20
2023-01-10T04:39:25.427Z,5.20
2023-01-10T04:42:10.192Z,5.21
2023-01-10T04:44:54.999Z,5.27
2023-01-10T04:47:39.975Z,5.31
2023-01-10T04:50:25.058Z,5.32
2023-01-10T04:53:10.107Z,5.37
2023-01-10T04:55:54.917Z,5.38
2023-01-10T04:58:39.998Z,5.35
2023-01-10T05:01:25.908Z,5.31
2023-01-10T05:04:11.139Z,5.23
2023-01-10T05:06:56.133Z,5.20
2023-01-10T05:09:42.613Z,5.15
2023-01-10T05:12:27.749Z,5.13
2023-01-10T05:15:13.678Z,5.16
2023-01-10T05:18:00.686Z,5.12
2023-01-10T05:20:46.733Z,5.13
2023-01-10T05:23:31.921Z,5.20
2023-01-10T05:26:19.740Z,5.22
2023-01-10T05:29:04.715Z,5.18
2023-01-10T05:31:51.431Z,5.22
2023-01-10T05:34:36.310Z,5.18
2023-01-10T05:37:21.388Z,5.14
2023-01-10T05:40:07.258Z,5.05
2023-01-10T05:42:52.176Z,4.99
2023-01-10T05:45:37.965Z,5.07
2023-01-10T05:48:23.014Z,5.06
2023-01-10T05:51:07.996Z,5.03
2023-01-10T05:53:52.938Z,4.93
2023-01-10T05:56:38.709Z,4.91
2023-01-10T05:59:30.863Z,4.78
2023-01-10T06:02:15.948Z,4.75
2023-01-10T06:05:01.133Z,4.78
2023-01-10T06:07:46.188Z,4.75
2023-01-10T06:10:31.365Z,4.76
2023-01-10T06:13:16.681Z,4.80
2023-01-10T06:16:01.839Z,4.89
2023-01-10T06:18:46.744Z,5.00
2023-01-10T06:21:32.009Z,5.02
2023-01-10T06:24:17.095Z,5.10
2023-01-10T06:27:02.365Z,5.14
2023-01-10T06:29:47.505Z,5.14
2023-01-10T06:32:32.277Z,5.19
2023-01-10T06:35:19.943Z,5.20
2023-01-10T06:38:05.144Z,5.12
2023-01-10T06:40:49.947Z,5.09
2023-01-10T06:43:35.156Z,5.04
2023-01-10T06:46:20.112Z,4.98
2023-01-10T06:49:05.007Z,4.95
2023-01-10T06:51:50.057Z,4.92
2023-01-10T06:54:35.168Z,4.89
2023-01-10T06:57:19.988Z,4.92
2023-01-10T07:00:07.475Z,4.89
2023-01-10T07:02:52.386Z,4.89
2023-01-10T07:05:37.268Z,4.89
2023-01-10T07:08:22.177Z,4.77
2023-01-10T07:11:08.058Z,4.75
2023-01-10T07:13:53.901Z,4.70
2023-01-10T07:16:38.688Z,4.69
2023-01-10T07:19:23.735Z,4.69
2023-01-10T07:22:08.520Z,4.64
2023-01-10T07:24:54.594Z,4.69
2023-01-10T07:27:43.151Z,4.69
2023-01-10T07:30:28.196Z,4.73
2023-01-10T07:33:13.072Z,4.75
2023-01-10T07:36:00.737Z,4.73
2023-01-10T07:38:45.619Z,4.71
2023-01-10T07:41:30.592Z,4.71
2023-01-10T07:44:16.196Z,4.66
2023-01-10T07:47:01.568Z,4.61
2023-01-10T07:49:46.398Z,4.57
2023-01-10T07:52:33.202Z,4.63
2023-01-10T07:55:18.604Z,4.63
2023-01-10T07:58:03.882Z,4.62
2023-01-10T08:00:50.960Z,4.62
2023-01-10T08:03:36.700Z,4.57
2023-01-10T08:06:21.946Z,4.61
2023-01-10T08:09:06.853Z,4.43
2023-01-10T08:11:51.670Z,4.42
2023-01-10T08:14:36.734Z,4.43
2023-01-10T08:17:21.610Z,4.46
2023-01-10T08:20:07.104Z,4.44
2023-01-10T08:22:51.817Z,4.36
2023-01-10T08:25:39.432Z,4.41
2023-01-10T08:28:24.382Z,4.34
2023-01-10T08:31:09.737Z,4.47
2023-01-10T08:33:54.561Z,4.45
2023-01-10T08:36:39.836Z,4.44
2023-01-10T08:39:26.488Z,4.53
2023-01-10T08:42:11.548Z,4.64
2023-01-10T08:44:56.498Z,4.72
2023-01-10T08:47:41.360Z,4.98
2023-01-10T08:50:26.257Z,5.00
2023-01-10T08:53:11.016Z,5.11
2023-01-10T08:55:55.924Z,5.12
2023-01-10T08:58:41.132Z,5.17
2023-01-10T09:01:26.225Z,5.08
2023-01-10T09:04:11.288Z,5.10
2023-01-10T09:06:56.239Z,5.35
2023-01-10T09:09:41.101Z,5.47
2023-01-10T09:12:44.693Z,5.58
2023-01-10T09:15:32.649Z,5.67
2023-01-10T09:18:17.461Z,5.78
2023-01-10T09:21:03.219Z,5.82
2023-01-10T09:23:48.156Z,5.85
2023-01-10T09:26:33.091Z,5.94
2023-01-10T09:29:17.815Z,6.01
2023-01-10T09:32:02.960Z,6.06
2023-01-10T09:34:47.762Z,6.18
2023-01-10T09:37:34.451Z,6.30
2023-01-10T09:40:41.458Z,6.45
2023-01-10T09:43:51.311Z,6.53
2023-01-10T09:46:56.423Z,6.73
2023-01-10T09:50:15.746Z,7.01
2023-01-10T09:53:12.388Z,7.21
2023-01-10T09:56:00.197Z,7.46
2023-01-10T09:58:45.893Z,7.05
2023-01-10T10:01:37.024Z,7.19
2023-01-10T10:04:34.893Z,7.34
2023-01-10T10:07:19.629Z,7.34
2023-01-10T10:10:11.753Z,7.69
2023-01-10T10:13:16.919Z,7.80
2023-01-10T10:16:37.031Z,8.55
2023-01-10T10:19:52.623Z,7.69
2023-01-10T10:22:50.313Z,7.55
2023-01-10T10:25:44.249Z,7.42
2023-01-10T10:28:53.689Z,7.68
2023-01-10T10:32:02.356Z,8.17
2023-01-10T10:35:15.234Z,8.16
2023-01-10T10:38:14.308Z,8.42
2023-01-10T10:41:01.216Z,8.50
2023-01-10T10:43:46.395Z,8.55
2023-01-10T10:46:32.289Z,8.48
2023-01-10T10:49:21.421Z,8.53
2023-01-10T10:52:21.933Z,8.81
2023-01-10T10:55:13.820Z,8.43
2023-01-10T10:58:00.785Z,8.39
2023-01-10T11:00:46.470Z,8.57
2023-01-10T11:03:55.887Z,8.69
2023-01-10T11:06:48.601Z,8.52
2023-01-10T11:09:33.538Z,8.51
2023-01-10T11:12:20.933Z,8.51
2023-01-10T11:15:06.393Z,8.44
2023-01-10T11:18:05.133Z,8.22
2023-01-10T11:20:58.964Z,8.17
2023-01-10T11:23:51.022Z,8.11
2023-01-10T11:26:40.041Z,8.03
2023-01-10T11:29:31.667Z,8.06
2023-01-10T11:32:33.843Z,7.93
2023-01-10T11:35:26.708Z,8.00
2023-01-10T11:38:14.325Z,7.91
2023-01-10T11:41:17.207Z,7.87
2023-01-10T11:44:21.978Z,7.94
2023-01-10T11:47:14.625Z,7.96
2023-01-10T11:49:59.914Z,8.09
2023-01-10T11:52:46.249Z,8.16
2023-01-10T11:55:34.761Z,8.21
2023-01-10T11:58:19.696Z,8.05
2023-01-10T12:01:05.405Z,8.20
2023-01-10T12:03:50.650Z,8.22
2023-01-10T12:06:35.577Z,8.14
2023-01-10T12:09:43.266Z,8.11
2023-01-10T12:12:31.574Z,8.22
2023-01-10T12:15:30.243Z,8.06
2023-01-10T12:18:17.558Z,7.99
2023-01-10T12:21:02.837Z,8.03
2023-01-10T12:23:50.634Z,7.99
2023-01-10T12:26:36.415Z,7.99
2023-01-10T12:29:25.860Z,7.85
2023-01-10T12:32:22.878Z,7.85
2023-01-10T12:35:16.050Z,7.99
2023-01-10T12:38:21.549Z,8.01
2023-01-10T12:41:11.290Z,7.92
2023-01-10T12:44:12.096Z,7.90
2023-01-10T12:47:12.967Z,7.81
2023-01-10T12:50:16.843Z,7.79
2023-01-10T12:53:29.313Z,7.83
2023-01-10T12:56:16.504Z,7.87
2023-01-10T12:59:14.511Z,7.81
2023-01-10T13:02:02.141Z,7.70
2023-01-10T13:04:51.624Z,7.73
2023-01-10T13:07:37.905Z,7.78
2023-01-10T13:10:24.976Z,7.76
2023-01-10T13:13:37.753Z,7.76
2023-01-10T13:16:50.431Z,7.75
2023-01-10T13:19:35.691Z,7.77
2023-01-10T13:22:23.069Z,7.79
2023-01-10T13:25:20.059Z,7.79
2023-01-10T13:28:08.444Z,7.82
2023-01-10T13:30:56.061Z,7.73
2023-01-10T13:33:52.701Z,7.67
2023-01-10T13:36:40.891Z,7.61
2023-01-10T13:39:32.199Z,7.55
2023-01-10T13:42:51.833Z,7.53
2023-01-10T13:45:38.404Z,7.53
2023-01-10T13:48:27.868Z,7.54
2023-01-10T13:51:19.842Z,7.43
2023-01-10T13:54:16.766Z,7.42
2023-01-10T13:57:01.606Z,7.31
2023-01-10T14:00:19.325Z,7.32
2023-01-10T14:03:04.631Z,7.30
2023-01-10T14:05:50.857Z,7.25
2023-01-10T14:08:37.048Z,7.30
2023-01-10T14:11:25.054Z,7.25
2023-01-10T14:14:25.529Z,7.30
2023-01-10T14:17:32.263Z,7.23
2023-01-10T14:20:20.742Z,7.23
2023-01-10T14:23:20.428Z,7.25
2023-01-10T14:26:05.659Z,7.25
2023-01-10T14:28:50.952Z,7.17
2023-01-10T14:31:38.540Z,7.17
2023-01-10T14:34:27.683Z,7.17
2023-01-10T14:37:27.673Z,7.14
2023-01-10T14:40:31.790Z,7.16
2023-01-10T14:43:19.815Z,7.10
2023-01-10T14:46:26.032Z,7.14
2023-01-10T14:49:28.394Z,7.07
2023-01-10T14:52:24.076Z,7.01
2023-01-10T14:55:17.879Z,6.99
2023-01-10T14:58:02.745Z,7.00
2023-01-10T15:00:49.281Z,6.98
2023-01-10T15:03:34.179Z,7.00
2023-01-10T15:06:19.437Z,7.02
2023-01-10T15:09:05.911Z,7.06
2023-01-10T15:11:52.880Z,7.03
2023-01-10T15:14:38.621Z,7.07
2023-01-10T15:17:24.137Z,7.04
2023-01-10T15:20:15.949Z,7.03
2023-01-10T15:23:01.918Z,7.03
2023-01-10T15:25:56.484Z,6.99
2023-01-10T15:28:43.865Z,6.99
2023-01-10T15:31:29.576Z,7.00
2023-01-10T15:34:20.278Z,6.99
2023-01-10T15:37:07.153Z,6.89
2023-01-10T15:39:54.288Z,6.83
2023-01-10T15:42:39.547Z,6.80
2023-01-10T15:45:28.498Z,6.65
2023-01-10T15:48:28.516Z,6.57
2023-01-10T15:51:15.942Z,6.46
2023-01-10T15:54:06.995Z,6.38
2023-01-10T15:56:56.271Z,6.24
2023-01-10T15:59:47.130Z,6.22
2023-01-10T16:02:33.132Z,6.08
2023-01-10T16:05:18.309Z,6.07
2023-01-10T16:08:04.227Z,5.98
2023-01-10T16:10:55.597Z,5.88
2023-01-10T16:13:41.474Z,5.93
2023-01-10T16:16:26.372Z,5.86
2023-01-10T16:19:13.306Z,5.76
2023-01-10T16:22:00.888Z,5.74
2023-01-10T16:24:47.376Z,5.71
2023-01-10T16:27:32.169Z,5.78
2023-01-10T16:30:25.991Z,5.77
2023-01-10T16:33:16.117Z,5.74
2023-01-10T16:36:01.156Z,5.79
2023-01-10T16:38:46.122Z,5.78
2023-01-10T16:41:49.510Z,5.80
2023-01-10T16:44:35.519Z,5.79
2023-01-10T16:47:20.604Z,5.78
2023-01-10T16:50:05.945Z,5.77
2023-01-10T16:52:51.067Z,5.77
2023-01-10T16:55:44.177Z,5.79
2023-01-10T16:58:29.025Z,5.79
2023-01-10T17:01:17.287Z,5.70
2023-01-10T17:04:03.985Z,5.75
2023-01-10T17:06:49.585Z,5.78
2023-01-10T17:09:34.878Z,5.80
2023-01-10T17:12:19.779Z,5.70
2023-01-10T17:15:08.144Z,5.73
2023-01-10T17:17:53.246Z,5.78
2023-01-10T17:20:37.982Z,5.71
2023-01-10T17:23:24.082Z,5.59
2023-01-10T17:26:11.097Z,5.74
2023-01-10T17:28:55.897Z,5.64
2023-01-10T17:31:40.798Z,5.64
2023-01-10T17:34:25.576Z,5.67
2023-01-10T17:37:10.604Z,5.65
2023-01-10T17:39:55.666Z,5.65
2023-01-10T17:42:40.778Z,5.65
2023-01-10T17:45:25.503Z,5.65
2023-01-10T17:48:12.973Z,5.60
2023-01-10T17:51:00.411Z,5.59
2023-01-10T17:53:45.662Z,5.59
2023-01-10T17:56:30.836Z,5.57
2023-01-10T17:59:15.807Z,5.59
2023-01-10T18:02:01.138Z,5.49
2023-01-10T18:04:46.245Z,5.48
2023-01-10T18:07:31.258Z,5.55
2023-01-10T18:10:16.945Z,5.57
2023-01-10T18:13:03.431Z,5.61
2023-01-10T18:15:49.572Z,5.59
2023-01-10T18:18:34.621Z,5.69
2023-01-10T18:21:19.787Z,5.92
2023-01-10T18:24:04.917Z,5.95
2023-01-10T18:26:49.797Z,5.87
2023-01-10T18:29:34.965Z,5.87
2023-01-10T18:32:21.963Z,5.90
2023-01-10T18:35:07.338Z,6.11
2023-01-10T18:37:52.411Z,6.11
2023-01-10T18:40:41.286Z,6.12
2023-01-10T18:43:26.412Z,6.10
2023-01-10T18:46:22.400Z,6.03
2023-01-10T18:49:07.519Z,6.07
2023-01-10T18:51:52.378Z,6.07
2023-01-10T18:54:37.416Z,6.09
2023-01-10T18:57:24.004Z,6.07
2023-01-10T19:00:09.796Z,6.16
2023-01-10T19:02:57.670Z,6.30
2023-01-10T19:05:43.025Z,6.33
2023-01-10T19:08:28.209Z,6.25
2023-01-10T19:11:16.243Z,6.32
2023-01-10T19:14:01.985Z,6.40
2023-01-10T19:16:47.081Z,6.51
2023-01-10T19:19:32.069Z,6.52
2023-01-10T19:22:18.522Z,6.41
2023-01-10T19:25:04.392Z,6.52
2023-01-10T19:27:49.323Z,6.49
2023-01-10T19:30:34.535Z,6.56
2023-01-10T19:33:19.915Z,6.47
2023-01-10T19:36:06.642Z,6.62
2023-01-10T19:38:56.579Z,6.51
2023-01-10T19:41:42.244Z,6.63
2023-01-10T19:44:27.117Z,6.63
2023-01-10T19:47:12.081Z,6.69
2023-01-10T19:49:56.984Z,6.60
2023-01-10T19:52:43.463Z,6.64
2023-01-10T19:55:29.238Z,6.70
2023-01-10T19:58:14.148Z,6.70
2023-01-10T20:01:06.982Z,6.66
2023-01-10T20:03:52.605Z,6.64
2023-01-10T20:06:40.890Z,6.82
2023-01-10T20:09:27.121Z,6.86
2023-01-10T20:12:14.146Z,6.80
2023-01-10T20:14:59.305Z,6.87
2023-01-10T20:17:45.088Z,6.86
2023-01-10T20:20:31.007Z,6.75
2023-01-10T20:23:17.543Z,6.91
2023-01-10T20:26:09.522Z,6.79
2023-01-10T20:28:56.194Z,6.81
2023-01-10T20:31:42.976Z,6.75
2023-01-10T20:34:28.500Z,6.81
2023-01-10T20:37:14.383Z,6.91
2023-01-10T20:39:59.653Z,6.86
2023-01-10T20:42:49.726Z,6.94
2023-01-10T20:45:34.963Z,6.97
2023-01-10T20:48:20.387Z,6.97
2023-01-10T20:51:06.480Z,6.95
2023-01-10T20:53:51.646Z,6.97
2023-01-10T20:56:37.734Z,7.04
2023-01-10T20:59:25.039Z,7.07
2023-01-10T21:02:11.042Z,7.03
2023-01-10T21:04:56.160Z,7.00
2023-01-10T21:07:41.026Z,7.09
2023-01-10T21:10:25.989Z,7.14
2023-01-10T21:13:11.699Z,7.17
2023-01-10T21:15:58.286Z,7.19
2023-01-10T21:18:46.071Z,7.08
2023-01-10T21:21:30.832Z,7.16
2023-01-10T21:24:15.964Z,7.20
2023-01-10T21:27:01.059Z,7.20
2023-01-10T21:29:46.124Z,7.22
2023-01-10T21:32:30.944Z,7.18
2023-01-10T21:35:16.106Z,7.22
2023-01-10T21:38:02.089Z,7.20
2023-01-10T21:40:47.183Z,7.28
2023-01-10T21:43:32.605Z,7.21
2023-01-10T21:46:17.622Z,7.23
2023-01-10T21:49:04.211Z,7.26
2023-01-10T21:51:49.064Z,7.30
2023-01-10T21:54:33.989Z,7.36
2023-01-10T21:57:22.064Z,7.37
2023-01-10T22:00:08.311Z,7.37
2023-01-10T22:02:53.511Z,7.33
2023-01-10T22:05:38.525Z,7.29
2023-01-10T22:08:23.971Z,7.28
2023-01-10T22:11:10.783Z,7.27
2023-01-10T22:13:57.264Z,7.30
2023-01-10T22:16:42.398Z,7.27
2023-01-10T22:19:27.266Z,7.24
2023-01-10T22:22:13.757Z,7.32
2023-01-10T22:24:58.579Z,7.32
2023-01-10T22:27:45.193Z,7.31
2023-01-10T22:30:29.931Z,7.29
2023-01-10T22:33:14.962Z,7.30
2023-01-10T22:36:04.962Z,7.24
2023-01-10T22:38:50.178Z,7.37
2023-01-10T22:41:36.155Z,7.37
2023-01-10T22:44:23.611Z,7.39
2023-01-10T22:47:08.775Z,7.36
2023-01-10T22:49:53.627Z,7.37
2023-01-10T22:52:38.859Z,7.34
2023-01-10T22:55:23.786Z,7.45
2023-01-10T22:58:08.694Z,7.48
2023-01-10T23:00:53.693Z,7.43
2023-01-10T23:03:38.600Z,7.37
2023-01-10T23:06:23.638Z,7.30
2023-01-10T23:09:08.415Z,7.24
2023-01-10T23:11:53.506Z,7.31
2023-01-10T23:14:38.547Z,7.34
2023-01-10T23:17:23.560Z,7.27
2023-01-10T23:20:09.274Z,7.31
2023-01-10T23:22:54.303Z,7.31
2023-01-10T23:25:39.431Z,7.40
2023-01-10T23:28:24.591Z,7.52
2023-01-10T23:31:09.802Z,7.59
2023-01-10T23:33:54.918Z,7.63
2023-01-10T23:36:39.970Z,7.69
2023-01-10T23:39:24.884Z,7.82
2023-01-10T23:42:09.695Z,7.85
2023-01-10T23:44:54.669Z,7.83
2023-01-10T23:47:39.774Z,7.74
2023-01-10T23:50:26.271Z,7.78
2023-01-10T23:53:11.145Z,7.88
2023-01-10T23:55:56.733Z,7.85
2023-01-10T23:58:41.588Z,7.84
